MSD YSSY-YSSY
Flight info
| Callsign | MSD |
|---|---|
| Flight time | 0h 9m |
| Altitude | 3000 |
| Route | SYDNEY HELI ROUTES |
| Aircraft | H160/L-SBDGRY/S |
Departure
| Time | 2026-04-25 15:00 |
|---|---|
| Airport | Sydney Kingsford Smith International Airport (YSSY) |
Arrival
| Time | 2026-04-25 15:09 |
|---|---|
| Airport | Sydney Kingsford Smith International Airport (YSSY) |
| Time | Latitude | Longitude | Altitude | Speed | Heading |
|---|---|---|---|---|---|
| 2026-04-25 14:50 | -33.93901 | 151.19087 | 25 ft | 0 kts | 105° |
| 2026-04-25 14:56 | -33.93901 | 151.19088 | 25 ft | 1 kts | 105° |
| 2026-04-25 14:56 | -33.93901 | 151.19090 | 24 ft | 0 kts | 90° |
| 2026-04-25 14:56 | -33.93899 | 151.19095 | 24 ft | 2 kts | 63° |
| 2026-04-25 14:57 | -33.93858 | 151.19084 | 40 ft | 23 kts | 1° |
| 2026-04-25 14:57 | -33.93845 | 151.18825 | 203 ft | 40 kts | 265° |
| 2026-04-25 14:57 | -33.94035 | 151.18542 | 414 ft | 50 kts | 235° |
| 2026-04-25 14:57 | -33.94290 | 151.18151 | 455 ft | 69 kts | 245° |
| 2026-04-25 14:58 | -33.94535 | 151.17564 | 294 ft | 85 kts | 248° |
| 2026-04-25 14:58 | -33.94850 | 151.16958 | 291 ft | 86 kts | 231° |
| 2026-04-25 14:58 | -33.95280 | 151.16455 | 293 ft | 90 kts | 220° |
| 2026-04-25 14:58 | -33.95800 | 151.16020 | 218 ft | 91 kts | 212° |
| 2026-04-25 14:59 | -33.96360 | 151.15685 | 167 ft | 93 kts | 202° |
| 2026-04-25 14:59 | -33.97013 | 151.15399 | 245 ft | 101 kts | 201° |
| 2026-04-25 14:59 | -33.97668 | 151.15122 | 308 ft | 100 kts | 198° |
| 2026-04-25 14:59 | -33.98347 | 151.14932 | 437 ft | 101 kts | 188° |
| 2026-04-25 15:00 | -33.99046 | 151.14882 | 628 ft | 101 kts | 174° |
| 2026-04-25 15:00 | -33.99641 | 151.15317 | 574 ft | 103 kts | 126° |
| 2026-04-25 15:00 | -34.00009 | 151.16052 | 542 ft | 103 kts | 133° |
| 2026-04-25 15:00 | -34.00653 | 151.16350 | 533 ft | 101 kts | 180° |
| 2026-04-25 15:01 | -34.01353 | 151.16326 | 525 ft | 100 kts | 184° |
| 2026-04-25 15:01 | -34.02043 | 151.16275 | 521 ft | 101 kts | 185° |
| 2026-04-25 15:01 | -34.02743 | 151.16254 | 519 ft | 101 kts | 180° |
| 2026-04-25 15:01 | -34.03441 | 151.16302 | 518 ft | 101 kts | 175° |
| 2026-04-25 15:02 | -34.04129 | 151.16471 | 518 ft | 102 kts | 158° |
| 2026-04-25 15:02 | -34.04727 | 151.16925 | 518 ft | 102 kts | 149° |
| 2026-04-25 15:02 | -34.05401 | 151.16964 | 516 ft | 102 kts | 209° |
| 2026-04-25 15:02 | -34.05720 | 151.16279 | 517 ft | 95 kts | 275° |
| 2026-04-25 15:03 | -34.05341 | 151.15720 | 513 ft | 89 kts | 345° |
| 2026-04-25 15:03 | -34.04802 | 151.15975 | 511 ft | 88 kts | 44° |
| 2026-04-25 15:03 | -34.04281 | 151.16298 | 509 ft | 87 kts | 6° |
| 2026-04-25 15:03 | -34.03683 | 151.16342 | 509 ft | 86 kts | 3° |
| 2026-04-25 15:04 | -34.03087 | 151.16418 | 508 ft | 86 kts | 6° |
| 2026-04-25 15:04 | -34.02492 | 151.16487 | 507 ft | 86 kts | 2° |
| 2026-04-25 15:04 | -34.01895 | 151.16513 | 510 ft | 84 kts | 360° |
| 2026-04-25 15:04 | -34.01332 | 151.16502 | 507 ft | 80 kts | 355° |
| 2026-04-25 15:05 | -34.00763 | 151.16446 | 490 ft | 89 kts | 351° |
| 2026-04-25 15:05 | -34.00174 | 151.16186 | 506 ft | 91 kts | 319° |
| 2026-04-25 15:05 | -33.99813 | 151.15573 | 507 ft | 89 kts | 304° |
| 2026-04-25 15:06 | -33.98657 | 151.15222 | 507 ft | 91 kts | 4° |
| 2026-04-25 15:06 | -33.98030 | 151.15331 | 507 ft | 91 kts | 11° |
| 2026-04-25 15:06 | -33.97441 | 151.15519 | 511 ft | 83 kts | 15° |
| 2026-04-25 15:06 | -33.96923 | 151.15707 | 510 ft | 73 kts | 13° |
| 2026-04-25 15:07 | -33.96451 | 151.15887 | 506 ft | 71 kts | 17° |
| 2026-04-25 15:07 | -33.95986 | 151.16102 | 507 ft | 72 kts | 21° |
| 2026-04-25 15:07 | -33.95531 | 151.16351 | 507 ft | 72 kts | 25° |
| 2026-04-25 15:07 | -33.95107 | 151.16667 | 500 ft | 72 kts | 36° |
| 2026-04-25 15:08 | -33.94703 | 151.17016 | 426 ft | 71 kts | 34° |
| 2026-04-25 15:08 | -33.94340 | 151.17346 | 356 ft | 62 kts | 39° |
| 2026-04-25 15:08 | -33.94108 | 151.17775 | 276 ft | 62 kts | 69° |
| 2026-04-25 15:08 | -33.94007 | 151.18247 | 210 ft | 52 kts | 77° |
| 2026-04-25 15:09 | -33.93965 | 151.18633 | 138 ft | 43 kts | 85° |
| 2026-04-25 15:09 | -33.93932 | 151.18946 | 89 ft | 25 kts | 63° |
| 2026-04-25 15:09 | -33.93922 | 151.19082 | 23 ft | 0 kts | 83° |
| 2026-04-25 15:10 | -33.93921 | 151.19085 | 23 ft | 2 kts | 66° |
| 2026-04-25 15:10 | -33.93907 | 151.19087 | 24 ft | 0 kts | 309° |
| 2026-04-25 15:14 | -33.93891 | 151.19068 | 52 ft | 7 kts | 306° |
| 2026-04-25 15:14 | -33.93760 | 151.18937 | 231 ft | 43 kts | 311° |
| 2026-04-25 15:14 | -33.93422 | 151.18703 | 266 ft | 62 kts | 342° |
| 2026-04-25 15:15 | -33.92997 | 151.18695 | 430 ft | 68 kts | 17° |
| 2026-04-25 15:15 | -33.92444 | 151.18886 | 725 ft | 90 kts | 11° |
| 2026-04-25 15:15 | -33.91836 | 151.18930 | 887 ft | 86 kts | 359° |
| 2026-04-25 15:15 | -33.91236 | 151.18948 | 954 ft | 87 kts | 6° |
| 2026-04-25 15:16 | -33.90652 | 151.19130 | 985 ft | 87 kts | 18° |
| 2026-04-25 15:16 | -33.90087 | 151.19397 | 995 ft | 87 kts | 22° |
| 2026-04-25 15:16 | -33.88955 | 151.20029 | 964 ft | 107 kts | 15° |
| 2026-04-25 15:17 | -33.87095 | 151.20018 | 1031 ft | 144 kts | 351° |
| 2026-04-25 15:17 | -33.86111 | 151.19885 | 1013 ft | 144 kts | 5° |
| 2026-04-25 15:17 | -33.85426 | 151.20694 | 1012 ft | 150 kts | 82° |
| 2026-04-25 15:18 | -33.85641 | 151.21888 | 1017 ft | 145 kts | 109° |
| 2026-04-25 15:18 | -33.85966 | 151.24263 | 1009 ft | 147 kts | 80° |
| 2026-04-25 15:18 | -33.85555 | 151.25373 | 1008 ft | 146 kts | 54° |
| 2026-04-25 15:19 | -33.84805 | 151.26183 | 1009 ft | 145 kts | 34° |
| 2026-04-25 15:19 | -33.84527 | 151.26387 | 1004 ft | 145 kts | 30° |
| 2026-04-25 15:19 | -33.82983 | 151.27122 | 760 ft | 144 kts | 13° |
| 2026-04-25 15:19 | -33.82027 | 151.26928 | 581 ft | 141 kts | 322° |
| 2026-04-25 15:20 | -33.81680 | 151.26013 | 746 ft | 109 kts | 269° |
| 2026-04-25 15:20 | -33.81647 | 151.25221 | 791 ft | 83 kts | 288° |
| 2026-04-25 15:20 | -33.81318 | 151.24812 | 701 ft | 60 kts | 339° |
| 2026-04-25 15:20 | -33.80986 | 151.24702 | 460 ft | 39 kts | 339° |
| 2026-04-25 15:21 | -33.80770 | 151.24712 | 382 ft | 31 kts | 351° |
| 2026-04-25 15:21 | -33.80581 | 151.24714 | 322 ft | 19 kts | 350° |
| 2026-04-25 15:21 | -33.80521 | 151.24677 | 297 ft | 1 kts | 213° |
| 2026-04-25 15:21 | -33.80524 | 151.24678 | 268 ft | 0 kts | 182° |
| 2026-04-25 15:22 | -33.80525 | 151.24679 | 188 ft | 0 kts | 181° |
| 2026-04-25 15:22 | -33.80524 | 151.24679 | 138 ft | 0 kts | 182° |
| 2026-04-25 15:22 | -33.80524 | 151.24678 | 109 ft | 4 kts | 182° |
| 2026-04-25 15:22 | -33.80524 | 151.24638 | 80 ft | 0 kts | 182° |
| 2026-04-25 15:23 | -33.80524 | 151.24639 | 52 ft | 0 kts | 182° |
| 2026-04-25 15:23 | -33.80525 | 151.24636 | 25 ft | 0 kts | 181° |
| 2026-04-25 15:23 | -33.80526 | 151.24637 | 19 ft | 0 kts | 182° |
| 2026-04-25 15:24 | -33.80521 | 151.24638 | 8 ft | 0 kts | 206° |
| 2026-04-25 15:25 | -33.80527 | 151.24632 | 26 ft | 3 kts | 205° |
| 2026-04-25 15:25 | -33.80551 | 151.24615 | 261 ft | 6 kts | 205° |
| 2026-04-25 15:25 | -33.80720 | 151.24529 | 513 ft | 47 kts | 208° |
| 2026-04-25 15:26 | -33.81126 | 151.24284 | 701 ft | 82 kts | 213° |
| 2026-04-25 15:26 | -33.81699 | 151.23883 | 674 ft | 110 kts | 215° |
| 2026-04-25 15:26 | -33.82405 | 151.23329 | 583 ft | 130 kts | 216° |
| 2026-04-25 15:26 | -33.83117 | 151.22659 | 582 ft | 125 kts | 230° |
| 2026-04-25 15:27 | -33.83402 | 151.21765 | 738 ft | 111 kts | 273° |
| 2026-04-25 15:27 | -33.83058 | 151.21053 | 995 ft | 89 kts | 312° |
| 2026-04-25 15:27 | -33.82258 | 151.20200 | 968 ft | 67 kts | 305° |
| 2026-04-25 15:28 | -33.82097 | 151.19785 | 833 ft | 49 kts | 281° |
| 2026-04-25 15:28 | -33.82004 | 151.19497 | 677 ft | 26 kts | 242° |
| 2026-04-25 15:28 | -33.81973 | 151.19308 | 570 ft | 17 kts | 165° |
| 2026-04-25 15:28 | -33.82089 | 151.19240 | 472 ft | 32 kts | 167° |
| 2026-04-25 15:29 | -33.82155 | 151.19026 | 520 ft | 12 kts | 154° |
| 2026-04-25 15:29 | -33.82116 | 151.19056 | 526 ft | 15 kts | 116° |
| 2026-04-25 15:29 | -33.82179 | 151.19191 | 533 ft | 27 kts | 98° |
| 2026-04-25 15:29 | -33.82299 | 151.19368 | 627 ft | 17 kts | 339° |
| 2026-04-25 15:30 | -33.82072 | 151.19265 | 602 ft | 52 kts | 256° |
| 2026-04-25 15:30 | -33.82002 | 151.18831 | 659 ft | 53 kts | 184° |
| 2026-04-25 15:30 | -33.82155 | 151.18777 | 782 ft | 22 kts | 83° |
| 2026-04-25 15:30 | -33.82105 | 151.19007 | 749 ft | 27 kts | 82° |
| 2026-04-25 15:31 | -33.82163 | 151.19220 | 629 ft | 31 kts | 111° |
| 2026-04-25 15:31 | -33.82380 | 151.19287 | 523 ft | 32 kts | 200° |
| 2026-04-25 15:31 | -33.82578 | 151.19147 | 448 ft | 51 kts | 210° |
| 2026-04-25 15:31 | -33.83061 | 151.18998 | 519 ft | 91 kts | 189° |
| 2026-04-25 15:32 | -33.83812 | 151.19013 | 413 ft | 128 kts | 175° |
| 2026-04-25 15:32 | -33.84735 | 151.19286 | 556 ft | 136 kts | 162° |
| 2026-04-25 15:32 | -33.85627 | 151.19722 | 806 ft | 140 kts | 161° |
| 2026-04-25 15:33 | -33.87510 | 151.20256 | 982 ft | 139 kts | 170° |
| 2026-04-25 15:33 | -33.88462 | 151.20331 | 993 ft | 139 kts | 203° |
| 2026-04-25 15:33 | -33.89233 | 151.19756 | 1049 ft | 121 kts | 216° |
| 2026-04-25 15:33 | -33.89893 | 151.19234 | 951 ft | 106 kts | 213° |
| 2026-04-25 15:34 | -33.90508 | 151.18868 | 715 ft | 94 kts | 200° |
| 2026-04-25 15:34 | -33.91107 | 151.18688 | 602 ft | 84 kts | 187° |
| 2026-04-25 15:34 | -33.91651 | 151.18622 | 552 ft | 75 kts | 183° |
| 2026-04-25 15:34 | -33.91827 | 151.18610 | 543 ft | 75 kts | 182° |
| 2026-04-25 15:35 | -33.92812 | 151.18568 | 503 ft | 26 kts | 180° |
| 2026-04-25 15:35 | -33.92934 | 151.18580 | 494 ft | 10 kts | 180° |
| 2026-04-25 15:35 | -33.92958 | 151.18587 | 501 ft | 2 kts | 180° |
| 2026-04-25 15:36 | -33.93248 | 151.18783 | 409 ft | 43 kts | 179° |
| 2026-04-25 15:36 | -33.93520 | 151.18928 | 289 ft | 41 kts | 167° |
| 2026-04-25 15:36 | -33.93742 | 151.19017 | 236 ft | 25 kts | 165° |
| 2026-04-25 15:37 | -33.93860 | 151.19079 | 147 ft | 14 kts | 164° |
| 2026-04-25 15:37 | -33.93897 | 151.19093 | 35 ft | 1 kts | 163° |
| 2026-04-25 15:37 | -33.93898 | 151.19093 | 22 ft | 0 kts | 165° |
| 2026-04-25 15:37 | -33.93905 | 151.19095 | 22 ft | 0 kts | 161° |